Time;durP1;ratioP1;P1;durP2;ratioP2;P2;SDS_P1;SDS_P2;PMS_P1;PMS_P2;Temp;Humidity;BMP_temperature;BMP_pressure;BME280_temperature;BME280_humidity;BME280_pressure;Samples;Min_cycle;Max_cycle;Signal;HPM_P1;HPM_P2
2022/03/12 00:01:37;;;;;;;10.60;0.50;;;;;;;11.63;88.65;100060.41;7387923;19;20024;-84
2022/03/12 00:04:07;;;;;;;6.68;0.93;;;;;;;11.68;89.37;100061.53;7391152;19;20467;-83
2022/03/12 00:06:34;;;;;;;7.63;0.38;;;;;;;11.75;89.52;100053.72;7389241;19;20037;-84
2022/03/12 00:09:03;;;;;;;3.13;0.32;;;;;;;11.78;89.56;100064.75;7387315;19;20388;-83
2022/03/12 00:11:34;;;;;;;8.13;1.27;;;;;;;11.79;89.17;100060.28;7386010;19;20047;-83
2022/03/12 00:14:04;;;;;;;6.68;0.40;;;;;;;11.80;88.90;100057.47;7387102;19;20011;-83
2022/03/12 00:16:32;;;;;;;10.45;1.20;;;;;;;11.85;89.09;100056.94;7386639;19;20013;-85
2022/03/12 00:19:02;;;;;;;3.55;0.50;;;;;;;11.81;89.29;100059.13;7388357;19;20035;-84
2022/03/12 00:21:34;;;;;;;2.20;1.02;;;;;;;11.82;88.59;100055.47;7392201;19;20020;-83
2022/03/12 00:24:03;;;;;;;3.55;0.50;;;;;;;11.82;88.52;100059.94;7389349;19;20029;-84
2022/03/12 00:26:33;;;;;;;5.18;0.32;;;;;;;11.78;87.55;100066.56;7389094;19;20040;-84
2022/03/12 00:29:00;;;;;;;2.58;0.43;;;;;;;11.81;88.76;100072.28;7389932;19;20015;-84
2022/03/12 00:31:28;;;;;;;7.30;0.40;;;;;;;11.79;88.17;100066.38;7390623;19;20238;-83
2022/03/12 00:33:56;;;;;;;8.70;0.40;;;;;;;11.74;87.25;100057.34;7391355;19;20014;-82
2022/03/12 00:36:23;;;;;;;7.78;0.47;;;;;;;11.69;87.45;100071.03;7388550;19;20007;-83
2022/03/12 00:38:51;;;;;;;4.45;0.30;;;;;;;11.72;87.56;100072.53;7390214;19;20317;-84
2022/03/12 00:41:18;;;;;;;6.53;0.50;;;;;;;11.73;87.65;100071.56;7391321;19;20135;-85
2022/03/12 00:43:45;;;;;;;6.00;0.40;;;;;;;11.75;87.82;100073.00;7388601;19;20018;-84
2022/03/12 00:46:15;;;;;;;2.90;0.40;;;;;;;11.73;87.16;100074.19;7385893;19;20045;-83
2022/03/12 00:48:42;;;;;;;6.03;0.68;;;;;;;11.66;86.02;100081.13;7389965;19;20077;-83
2022/03/12 00:51:11;;;;;;;4.68;0.70;;;;;;;11.66;86.72;100084.59;7388151;19;20006;-83
2022/03/12 00:53:40;;;;;;;4.88;1.02;;;;;;;11.66;86.80;100075.84;7388088;19;20019;-82
2022/03/12 00:56:08;;;;;;;6.35;0.40;;;;;;;11.68;86.55;100074.69;7394065;19;20032;-83
2022/03/12 00:58:36;;;;;;;5.38;0.40;;;;;;;11.67;86.38;100080.97;7388563;19;20019;-83
2022/03/12 01:01:05;;;;;;;6.60;0.50;;;;;;;11.68;87.23;100079.97;7391965;19;20006;-83
2022/03/12 01:03:35;;;;;;;2.75;0.43;;;;;;;11.72;87.21;100088.34;7388224;19;20425;-84
2022/03/12 01:06:04;;;;;;;9.10;0.52;;;;;;;11.73;86.68;100079.47;7391932;19;20015;-83
2022/03/12 01:08:35;;;;;;;9.65;2.95;;;;;;;11.78;87.07;100092.94;7390490;19;20002;-83
2022/03/12 01:11:07;;;;;;;4.90;0.60;;;;;;;11.78;87.22;100085.84;7392567;19;20029;-83
2022/03/12 01:13:34;;;;;;;5.28;0.50;;;;;;;11.74;85.90;100092.44;7393966;19;20006;-83
2022/03/12 01:16:02;;;;;;;8.27;0.52;;;;;;;11.77;85.85;100091.28;7389690;19;20018;-84
2022/03/12 01:18:35;;;;;;;5.32;0.30;;;;;;;11.77;85.77;100088.66;7385667;19;20037;-84
2022/03/12 01:21:10;;;;;;;6.05;1.13;;;;;;;11.76;85.20;100095.72;7386868;19;20011;-83
2022/03/12 01:23:37;;;;;;;5.00;0.47;;;;;;;11.79;86.14;100100.63;7386210;19;20505;-84
2022/03/12 01:26:05;;;;;;;4.63;0.22;;;;;;;11.77;85.14;100092.09;7391594;19;20018;-82
2022/03/12 01:28:33;;;;;;;6.97;0.52;;;;;;;11.80;85.99;100102.28;7388818;19;20397;-83
2022/03/12 01:31:01;;;;;;;6.15;0.40;;;;;;;11.80;85.49;100098.81;7393609;19;20057;-82
2022/03/12 01:33:29;;;;;;;8.35;0.80;;;;;;;11.79;85.71;100103.28;7386632;19;20400;-83
2022/03/12 01:35:57;;;;;;;7.38;0.70;;;;;;;11.84;86.64;100102.72;7391517;19;20502;-83
2022/03/12 01:38:51;;;;;;;7.68;0.70;;;;;;;11.83;85.69;100104.56;7384273;19;20025;-83
2022/03/12 01:41:40;;;;;;;8.27;2.28;;;;;;;11.82;85.63;100100.28;7391581;19;20107;-83
2022/03/12 01:44:12;;;;;;;6.45;0.50;;;;;;;11.86;86.14;100108.66;7391098;19;20378;-81
2022/03/12 01:46:45;;;;;;;9.18;2.10;;;;;;;11.88;86.62;100096.94;7388289;19;20019;-83
2022/03/12 01:49:18;;;;;;;4.30;0.30;;;;;;;11.89;86.57;100103.84;7385994;19;20023;-85
2022/03/12 01:51:49;;;;;;;6.03;0.40;;;;;;;11.89;85.71;100105.66;7386215;19;20017;-82
2022/03/12 01:54:23;;;;;;;7.90;0.50;;;;;;;11.83;84.13;100106.38;7388168;19;20374;-83
2022/03/12 01:56:53;;;;;;;4.95;0.38;;;;;;;11.77;83.71;100100.00;7389829;19;20010;-82
2022/03/12 01:59:24;;;;;;;8.48;0.43;;;;;;;11.78;84.09;100106.09;7390461;19;20475;-82
2022/03/12 02:01:52;;;;;;;6.20;0.50;;;;;;;11.73;83.67;100100.53;7390812;19;20018;-82
2022/03/12 02:04:21;;;;;;;8.43;0.50;;;;;;;11.67;83.06;100106.50;7386282;19;20472;-83
2022/03/12 02:06:52;;;;;;;2.80;0.30;;;;;;;11.68;82.91;100110.78;7389714;19;20505;-83
2022/03/12 02:09:22;;;;;;;4.25;0.43;;;;;;;11.68;83.38;100108.13;7389371;19;20041;-83
2022/03/12 02:11:51;;;;;;;9.02;0.40;;;;;;;11.64;83.07;100118.19;7389883;19;20006;-83
2022/03/12 02:14:25;;;;;;;7.40;0.50;;;;;;;11.65;83.35;100111.09;7387550;19;20078;-83
2022/03/12 02:16:59;;;;;;;5.63;0.40;;;;;;;11.68;83.18;100108.13;7388605;19;20111;-84
2022/03/12 02:19:28;;;;;;;5.18;0.40;;;;;;;11.65;82.92;100108.47;7387548;19;20020;-83
2022/03/12 02:22:03;;;;;;;5.88;0.50;;;;;;;11.62;82.38;100111.47;7392179;19;20317;-83
2022/03/12 02:24:32;;;;;;;4.10;0.30;;;;;;;11.55;82.00;100108.72;7390498;19;20014;-84
2022/03/12 02:27:02;;;;;;;7.88;0.50;;;;;;;11.57;82.90;100112.00;7391612;19;20018;-83
2022/03/12 02:29:29;;;;;;;5.30;1.02;;;;;;;11.57;82.94;100120.75;7387767;19;20014;-82
2022/03/12 02:32:02;;;;;;;9.05;1.20;;;;;;;11.54;82.82;100118.44;7389228;19;20314;-83
2022/03/12 02:34:39;;;;;;;4.30;0.50;;;;;;;11.58;83.62;100122.34;7387371;19;20133;-83
2022/03/12 02:37:06;;;;;;;8.65;0.50;;;;;;;11.57;84.04;100118.09;7384086;19;20007;-84
2022/03/12 02:39:39;;;;;;;6.53;0.32;;;;;;;11.57;83.96;100125.19;7389589;19;20011;-83
2022/03/12 02:42:07;;;;;;;5.93;0.90;;;;;;;11.61;84.80;100112.47;7387805;19;20026;-83
2022/03/12 02:44:35;;;;;;;6.18;0.47;;;;;;;11.59;84.46;100124.00;7385839;19;20380;-84
2022/03/12 02:47:11;;;;;;;5.05;0.40;;;;;;;11.61;84.85;100120.38;7384724;19;20010;-82
2022/03/12 02:49:50;;;;;;;4.63;0.47;;;;;;;11.66;84.82;100120.66;7387478;19;20015;-83
2022/03/12 02:52:38;;;;;;;5.30;0.43;;;;;;;11.64;83.96;100117.38;7384695;19;20018;-84
2022/03/12 02:55:34;;;;;;;7.93;0.88;;;;;;;11.66;84.20;100113.56;7383963;19;20126;-83
2022/03/12 02:58:14;;;;;;;4.07;0.40;;;;;;;11.66;83.34;100112.75;7384541;19;20094;-83
2022/03/12 03:00:44;;;;;;;5.47;0.57;;;;;;;11.63;82.68;100113.91;7384559;19;20006;-83
2022/03/12 03:03:11;;;;;;;5.22;0.40;;;;;;;11.64;82.60;100117.38;7383475;19;20562;-83
2022/03/12 03:05:46;;;;;;;6.85;0.50;;;;;;;11.61;82.31;100125.63;7386955;19;20021;-83
2022/03/12 03:08:20;;;;;;;7.10;0.50;;;;;;;11.59;82.05;100120.53;7387429;19;20014;-83
2022/03/12 03:10:52;;;;;;;4.40;0.40;;;;;;;11.59;81.93;100120.53;7386170;19;20011;-83
2022/03/12 03:13:20;;;;;;;5.70;0.53;;;;;;;11.57;82.73;100122.53;7389142;19;20015;-83
2022/03/12 03:16:00;;;;;;;6.05;0.45;;;;;;;11.61;82.77;100118.56;7388087;19;20734;-83
2022/03/12 03:18:32;;;;;;;6.05;0.50;;;;;;;11.62;81.92;100120.19;7383738;19;20126;-83
2022/03/12 03:21:01;;;;;;;6.20;0.50;;;;;;;11.61;81.53;100115.91;7386351;19;20022;-82
2022/03/12 03:23:31;;;;;;;5.45;0.57;;;;;;;11.59;81.78;100129.25;7385382;19;20003;-83
2022/03/12 03:26:00;;;;;;;2.22;0.40;;;;;;;11.59;82.07;100129.25;7386878;19;20021;-83
2022/03/12 03:28:27;;;;;;;3.47;0.30;;;;;;;11.58;81.09;100137.34;7384759;19;20447;-83
2022/03/12 03:30:55;;;;;;;5.00;0.35;;;;;;;11.50;80.44;100143.50;7385534;19;20071;-84
2022/03/12 03:33:25;;;;;;;3.90;0.40;;;;;;;11.52;81.18;100136.25;7383692;19;20329;-84
2022/03/12 03:35:52;;;;;;;5.10;0.55;;;;;;;11.55;81.68;100149.06;7382797;19;20010;-82
2022/03/12 03:38:19;;;;;;;3.70;0.95;;;;;;;11.56;81.51;100145.44;7384138;19;20015;-83
2022/03/12 03:40:47;;;;;;;7.30;0.60;;;;;;;11.58;80.92;100150.50;7388486;19;20011;-82
2022/03/12 03:43:19;;;;;;;9.00;1.10;;;;;;;11.57;81.68;100148.91;7383107;19;20028;-82
2022/03/12 03:45:50;;;;;;;3.72;0.22;;;;;;;11.60;82.26;100159.06;7383084;19;20011;-83
2022/03/12 03:48:20;;;;;;;6.40;1.02;;;;;;;11.59;82.12;100155.63;7388163;19;20017;-82
2022/03/12 03:50:49;;;;;;;2.50;1.08;;;;;;;11.63;82.30;100148.16;7384007;19;20022;-83
2022/03/12 03:53:20;;;;;;;4.15;0.30;;;;;;;11.64;81.67;100157.72;7383354;19;20018;-83
2022/03/12 03:55:48;;;;;;;2.45;0.30;;;;;;;11.62;81.02;100162.38;7386125;19;20440;-82
2022/03/12 03:58:15;;;;;;;2.80;0.32;;;;;;;11.63;81.29;100148.16;7384976;19;20036;-83
2022/03/12 04:01:06;;;;;;;6.03;0.40;;;;;;;11.62;80.92;100158.91;7387538;19;20091;-81
2022/03/12 04:03:33;;;;;;;6.85;0.30;;;;;;;11.55;80.98;100162.22;7387428;19;20007;-83
2022/03/12 04:06:03;;;;;;;8.63;0.40;;;;;;;11.52;80.58;100159.13;7393332;19;20037;-83
2022/03/12 04:08:32;;;;;;;7.00;0.88;;;;;;;11.51;81.85;100162.75;7389492;19;20460;-83
2022/03/12 04:11:04;;;;;;;7.47;0.45;;;;;;;11.48;81.52;100166.56;7390814;19;20040;-82
2022/03/12 04:13:33;;;;;;;9.13;1.98;;;;;;;11.45;81.46;100164.28;7391829;19;20341;-82
2022/03/12 04:16:01;;;;;;;9.48;1.15;;;;;;;11.50;82.60;100171.66;7392769;19;20017;-83
2022/03/12 04:18:30;;;;;;;6.45;1.27;;;;;;;11.47;82.16;100161.47;7387727;19;20457;-83
2022/03/12 04:20:57;;;;;;;15.18;0.90;;;;;;;11.46;83.09;100173.00;7393374;19;20018;-84
2022/03/12 04:23:27;;;;;;;5.25;0.40;;;;;;;11.48;83.04;100171.81;7391056;19;20007;-82
2022/03/12 04:25:56;;;;;;;4.43;0.30;;;;;;;11.44;82.20;100180.25;7390313;19;20411;-83
2022/03/12 04:28:28;;;;;;;4.78;0.40;;;;;;;11.42;81.63;100182.25;7390564;19;20018;-82
2022/03/12 04:30:55;;;;;;;3.72;0.30;;;;;;;11.42;81.83;100185.72;7392185;19;20037;-83
2022/03/12 04:33:22;;;;;;;5.18;0.30;;;;;;;11.40;81.77;100186.88;7389236;19;20011;-83
2022/03/12 04:35:49;;;;;;;5.00;0.40;;;;;;;11.36;81.89;100191.66;7386281;19;20130;-83
2022/03/12 04:38:17;;;;;;;9.60;0.50;;;;;;;11.32;82.14;100197.47;7390654;19;20477;-83
2022/03/12 04:40:45;;;;;;;7.00;0.60;;;;;;;11.32;82.98;100200.91;7387243;19;20029;-83
2022/03/12 04:43:13;;;;;;;5.07;0.20;;;;;;;11.33;82.95;100196.44;7390471;19;20018;-82
2022/03/12 04:45:45;;;;;;;7.80;0.50;;;;;;;11.36;83.50;100201.38;7389883;19;20472;-82
2022/03/12 04:48:15;;;;;;;3.35;0.30;;;;;;;11.34;83.50;100204.19;7391233;19;20006;-82
2022/03/12 04:50:43;;;;;;;3.08;0.30;;;;;;;11.32;83.20;100203.56;7391408;19;20499;-83
2022/03/12 04:53:10;;;;;;;6.15;0.60;;;;;;;11.33;83.32;100220.97;7387542;19;20014;-83
2022/03/12 04:55:38;;;;;;;3.50;0.50;;;;;;;11.33;83.67;100214.88;7396200;19;20037;-83
2022/03/12 04:58:07;;;;;;;6.32;0.30;;;;;;;11.30;82.70;100226.59;7390941;19;20026;-82
2022/03/12 05:00:38;;;;;;;4.32;0.40;;;;;;;11.30;83.45;100223.13;7394204;19;20018;-83
2022/03/12 05:03:08;;;;;;;7.15;0.38;;;;;;;11.26;82.29;100224.47;7390024;19;20010;-82
2022/03/12 05:05:41;;;;;;;4.40;0.20;;;;;;;11.26;82.52;100235.00;7387216;19;20006;-83
2022/03/12 05:08:16;;;;;;;;;;;;;;;11.22;82.23;100231.91;7388010;19;20082;-83
2022/03/12 05:10:50;;;;;;;6.50;0.28;;;;;;;11.17;81.97;100251.84;7394121;19;19922;-83
2022/03/12 05:13:25;;;;;;;1.98;0.10;;;;;;;11.14;82.08;100258.25;7388392;19;20050;-83
2022/03/12 05:15:57;;;;;;;3.67;0.22;;;;;;;11.13;81.86;100261.88;7392930;19;20124;-83
2022/03/12 05:18:25;;;;;;;5.03;0.40;;;;;;;11.14;83.08;100272.25;7386630;19;20006;-82
2022/03/12 05:20:53;;;;;;;2.28;0.10;;;;;;;11.14;82.56;100274.06;7389240;19;20060;-82
2022/03/12 05:23:21;;;;;;;7.57;0.30;;;;;;;11.06;81.68;100274.09;7387828;19;20007;-82
2022/03/12 05:25:50;;;;;;;4.95;0.40;;;;;;;11.04;82.19;100276.91;7393246;19;20026;-83
2022/03/12 05:28:23;;;;;;;4.28;0.20;;;;;;;11.04;82.01;100287.44;7391254;19;20033;-82
2022/03/12 05:30:53;;;;;;;8.02;0.52;;;;;;;11.04;82.05;100287.44;7390071;19;20045;-82
2022/03/12 05:33:21;;;;;;;5.75;0.20;;;;;;;11.05;81.96;100290.88;7387922;19;20148;-82
2022/03/12 05:35:53;;;;;;;4.05;1.30;;;;;;;11.05;82.13;100293.50;7388209;19;20082;-82
2022/03/12 05:38:22;;;;;;;6.00;0.20;;;;;;;11.04;82.39;100299.75;7387404;19;20078;-83
2022/03/12 05:40:51;;;;;;;1.90;0.10;;;;;;;11.03;82.08;100306.00;7392063;19;20435;-83
2022/03/12 05:43:18;;;;;;;6.18;0.28;;;;;;;11.03;81.27;100308.66;7387222;19;20006;-83
2022/03/12 05:45:48;;;;;;;2.97;0.30;;;;;;;10.99;81.39;100310.81;7391757;19;20356;-83
2022/03/12 05:48:17;;;;;;;2.35;0.30;;;;;;;10.99;81.78;100317.88;7391528;19;20337;-84
2022/03/12 05:50:47;;;;;;;4.47;0.10;;;;;;;10.95;81.20;100325.28;7389519;19;20121;-83
2022/03/12 05:53:17;;;;;;;8.10;0.20;;;;;;;10.96;81.43;100323.50;7388056;19;20034;-83
2022/03/12 05:55:47;;;;;;;2.42;0.20;;;;;;;10.97;81.69;100336.47;7390320;19;20032;-84
2022/03/12 05:58:17;;;;;;;5.53;0.80;;;;;;;10.97;81.56;100331.19;7391510;19;20037;-82
2022/03/12 06:00:47;;;;;;;2.10;0.15;;;;;;;11.01;81.69;100336.97;7390114;19;20362;-82
2022/03/12 06:03:14;;;;;;;7.85;1.30;;;;;;;11.01;81.88;100339.59;7385995;19;20042;-83
2022/03/12 06:05:43;;;;;;;4.03;0.10;;;;;;;11.04;82.13;100339.25;7385529;19;20106;-82
2022/03/12 06:08:20;;;;;;;2.42;0.10;;;;;;;11.04;81.54;100350.59;7385443;19;20130;-84
2022/03/12 06:10:51;;;;;;;4.22;0.55;;;;;;;11.05;82.69;100349.63;7387230;19;20336;-82
2022/03/12 06:13:21;;;;;;;4.60;0.65;;;;;;;11.05;82.42;100354.88;7391553;19;20018;-82
2022/03/12 06:15:58;;;;;;;6.07;1.00;;;;;;;11.03;82.01;100356.03;7386301;19;20440;-83
2022/03/12 06:18:33;;;;;;;1.35;0.10;;;;;;;11.05;82.32;100362.78;7385215;19;20021;-82
2022/03/12 06:21:02;;;;;;;4.40;0.40;;;;;;;10.99;81.69;100365.25;7386661;19;20019;-82
2022/03/12 06:23:30;;;;;;;6.90;2.05;;;;;;;10.95;82.17;100366.59;7387371;19;20618;-83
2022/03/12 06:25:57;;;;;;;6.93;0.38;;;;;;;10.92;82.07;100366.94;7389001;19;20472;-83
2022/03/12 06:28:25;;;;;;;4.28;0.75;;;;;;;10.89;82.95;100365.44;7387059;19;20034;-83
2022/03/12 06:30:53;;;;;;;8.80;0.40;;;;;;;10.91;82.97;100373.19;7386860;19;20440;-83
2022/03/12 06:33:21;;;;;;;7.35;1.60;;;;;;;10.92;82.54;100387.97;7388893;19;20407;-83
2022/03/12 06:35:49;;;;;;;6.60;0.70;;;;;;;10.88;83.04;100386.66;7388576;19;20030;-83
2022/03/12 06:38:16;;;;;;;11.25;0.30;;;;;;;10.85;82.68;100379.91;7386967;19;20007;-83
2022/03/12 06:40:44;;;;;;;4.28;0.30;;;;;;;10.83;82.70;100389.78;7391174;19;20331;-83
2022/03/12 06:43:19;;;;;;;10.25;0.28;;;;;;;10.86;83.23;100380.75;7386445;19;20125;-82
2022/03/12 06:45:48;;;;;;;7.50;0.10;;;;;;;10.89;82.91;100390.94;7389668;19;20014;-83
2022/03/12 06:48:16;;;;;;;12.45;1.05;;;;;;;10.90;83.09;100384.69;7384601;19;20010;-84
2022/03/12 06:50:44;;;;;;;4.63;0.28;;;;;;;10.89;83.17;100390.94;7389154;19;20455;-83
2022/03/12 06:53:12;;;;;;;5.82;0.20;;;;;;;10.84;82.17;100393.25;7384762;19;20015;-82
2022/03/12 06:55:41;;;;;;;7.90;0.65;;;;;;;10.84;81.84;100394.06;7386355;19;20420;-82
2022/03/12 06:58:09;;;;;;;5.40;0.20;;;;;;;10.85;82.08;100402.78;7385372;19;20407;-82
2022/03/12 07:00:36;;;;;;;4.00;0.30;;;;;;;10.85;82.23;100402.78;7383158;19;20036;-82
2022/03/12 07:03:04;;;;;;;6.05;0.30;;;;;;;10.84;82.11;100407.22;7382934;19;20014;-83
2022/03/12 07:05:31;;;;;;;7.32;0.52;;;;;;;10.87;82.44;100420.03;7384419;19;20371;-82
2022/03/12 07:07:59;;;;;;;2.95;0.20;;;;;;;10.87;82.31;100425.31;7385331;19;20399;-82
2022/03/12 07:10:26;;;;;;;5.18;0.30;;;;;;;10.89;83.32;100438.31;7387878;19;20318;-81
2022/03/12 07:12:53;;;;;;;5.25;0.20;;;;;;;10.93;83.72;100434.34;7384201;19;20010;-83
2022/03/12 07:15:21;;;;;;;8.15;0.93;;;;;;;10.94;82.93;100439.47;7386420;19;20025;-83
2022/03/12 07:17:49;;;;;;;5.63;0.40;;;;;;;10.98;83.66;100445.22;7386219;19;20479;-83
2022/03/12 07:20:17;;;;;;;4.80;0.63;;;;;;;10.97;83.71;100440.94;7382435;19;20045;-82
2022/03/12 07:22:45;;;;;;;5.82;0.20;;;;;;;11.01;83.98;100444.91;7386437;19;20014;-85
2022/03/12 07:25:14;;;;;;;9.40;0.68;;;;;;;11.04;84.48;100444.56;7387006;19;20011;-83
2022/03/12 07:27:42;;;;;;;8.85;0.82;;;;;;;11.06;84.42;100450.50;7384250;19;20443;-83
2022/03/12 07:30:13;;;;;;;11.18;0.60;;;;;;;11.06;84.06;100458.38;7389307;19;20019;-83
2022/03/12 07:32:42;;;;;;;9.35;0.57;;;;;;;11.10;83.92;100459.69;7385751;19;20382;-82
2022/03/12 07:35:12;;;;;;;2.70;0.30;;;;;;;11.11;83.87;100470.06;7383710;19;20016;-82
2022/03/12 07:37:41;;;;;;;18.45;1.77;;;;;;;11.14;83.69;100474.16;7391666;19;20014;-83
2022/03/12 07:40:09;;;;;;;7.45;0.50;;;;;;;11.15;84.07;100466.13;7388867;19;20003;-83
2022/03/12 07:42:37;;;;;;;8.30;0.93;;;;;;;11.14;83.39;100482.06;7395119;19;20018;-82
2022/03/12 07:45:09;;;;;;;6.95;0.50;;;;;;;11.09;83.02;100493.09;7394811;19;20328;-83
2022/03/12 07:47:37;;;;;;;5.65;0.50;;;;;;;11.11;82.81;100500.84;7396440;19;20021;-82
2022/03/12 07:50:05;;;;;;;8.95;1.10;;;;;;;11.06;81.09;100496.06;7392244;19;20018;-77
2022/03/12 07:52:32;;;;;;;6.10;0.50;;;;;;;11.10;81.08;100515.81;7384690;19;20014;-79
2022/03/12 07:55:00;;;;;;;6.28;0.30;;;;;;;11.15;81.24;100512.69;7393500;19;20034;-79
2022/03/12 07:57:28;;;;;;;2.67;0.47;;;;;;;11.22;81.01;100520.75;7389971;19;20010;-78
2022/03/12 07:59:58;;;;;;;2.83;0.10;;;;;;;11.30;80.22;100528.66;7390125;19;20023;-78
2022/03/12 08:02:25;;;;;;;3.28;0.40;;;;;;;11.39;78.99;100523.22;7389609;19;20015;-78
2022/03/12 08:04:53;;;;;;;2.80;0.10;;;;;;;11.54;78.55;100524.19;7386200;19;20105;-78
2022/03/12 08:07:20;;;;;;;3.30;0.10;;;;;;;11.63;77.41;100525.00;7391102;19;20039;-79
2022/03/12 08:09:47;;;;;;;5.13;0.30;;;;;;;11.74;77.05;100529.94;7393095;19;20018;-79
2022/03/12 08:12:16;;;;;;;3.45;0.28;;;;;;;11.85;76.85;100529.59;7392915;19;20027;-79
2022/03/12 08:14:45;;;;;;;4.72;0.20;;;;;;;12.01;76.95;100526.09;7390601;19;20408;-79
2022/03/12 08:17:12;;;;;;;0.63;0.10;;;;;;;12.10;76.46;100530.34;7386200;19;20003;-79
2022/03/12 08:19:40;;;;;;;8.02;0.50;;;;;;;12.37;76.26;100529.09;7388313;19;20018;-79
2022/03/12 08:22:07;;;;;;;4.00;0.25;;;;;;;12.82;74.76;100529.19;7393547;19;20011;-79
2022/03/12 08:24:34;;;;;;;4.97;0.43;;;;;;;13.12;73.27;100538.09;7393126;19;20014;-78
2022/03/12 08:27:01;;;;;;;3.03;0.30;;;;;;;13.42;72.71;100536.34;7388257;19;20023;-79
2022/03/12 08:29:31;;;;;;;3.47;0.20;;;;;;;13.87;70.27;100546.00;7390355;19;20017;-78
2022/03/12 08:32:07;;;;;;;4.68;0.20;;;;;;;13.91;68.93;100555.25;7388857;19;20029;-78
2022/03/12 08:34:34;;;;;;;5.50;0.52;;;;;;;13.82;69.79;100558.13;7387568;19;20033;-79
2022/03/12 08:37:04;;;;;;;5.65;0.65;;;;;;;13.64;70.55;100559.31;7386536;19;20362;-78
2022/03/12 08:39:40;;;;;;;6.38;0.70;;;;;;;13.47;72.21;100573.66;7388692;19;20357;-79
2022/03/12 08:42:07;;;;;;;4.93;0.40;;;;;;;13.24;72.57;100576.31;7389306;19;20026;-80
2022/03/12 08:44:35;;;;;;;4.07;0.90;;;;;;;13.07;73.74;100582.66;7385984;19;20489;-78
2022/03/12 08:47:04;;;;;;;8.80;1.00;;;;;;;12.97;75.01;100590.00;7388570;19;20010;-80
2022/03/12 08:49:38;;;;;;;7.88;0.40;;;;;;;12.82;76.06;100592.56;7389312;19;20007;-79
2022/03/12 08:52:05;;;;;;;5.43;0.50;;;;;;;12.72;76.51;100597.22;7389929;19;20006;-79
2022/03/12 08:54:33;;;;;;;8.38;0.75;;;;;;;12.68;77.22;100601.22;7388268;19;20010;-79
2022/03/12 08:57:00;;;;;;;5.22;0.30;;;;;;;12.76;76.19;100616.19;7386378;19;20006;-79
2022/03/12 08:59:29;;;;;;;6.95;0.68;;;;;;;12.79;77.73;100607.94;7388294;19;20022;-79
2022/03/12 09:02:04;;;;;;;9.20;1.52;;;;;;;12.78;76.90;100604.47;7389680;19;20067;-78
2022/03/12 09:04:31;;;;;;;8.40;0.60;;;;;;;12.77;77.19;100608.09;7385190;19;20053;-79
2022/03/12 09:06:58;;;;;;;7.05;1.02;;;;;;;12.82;77.89;100603.13;7388143;19;20368;-78
2022/03/12 09:09:25;;;;;;;8.77;0.75;;;;;;;12.78;76.18;100603.63;7385952;19;20014;-79
2022/03/12 09:11:52;;;;;;;10.70;0.85;;;;;;;12.72;75.67;100591.94;7389966;19;20027;-79
2022/03/12 09:14:19;;;;;;;10.30;0.82;;;;;;;12.68;76.04;100603.03;7384790;19;20086;-79
2022/03/12 09:16:47;;;;;;;8.38;0.90;;;;;;;12.59;76.38;100596.97;7385880;19;20218;-79
2022/03/12 09:19:14;;;;;;;9.85;1.15;;;;;;;12.56;76.12;100599.94;7385294;19;20094;-78
2022/03/12 09:21:42;;;;;;;12.70;0.43;;;;;;;12.56;76.95;100596.47;7388967;19;20058;-78
2022/03/12 09:24:11;;;;;;;8.25;0.50;;;;;;;12.57;76.98;100600.75;7390623;19;20036;-78
2022/03/12 09:26:38;;;;;;;9.88;0.43;;;;;;;12.52;76.64;100605.72;7389131;19;20031;-80
2022/03/12 09:29:05;;;;;;;14.13;0.70;;;;;;;12.58;76.31;100610.31;7388984;19;20434;-78
2022/03/12 09:31:32;;;;;;;7.13;0.50;;;;;;;12.66;75.58;100595.28;7385826;19;20017;-79
2022/03/12 09:34:02;;;;;;;9.77;0.70;;;;;;;12.71;75.01;100597.38;7384669;19;20011;-79
2022/03/12 09:36:30;;;;;;;8.40;0.63;;;;;;;12.77;74.90;100604.63;7389271;19;20209;-77
2022/03/12 09:38:57;;;;;;;9.27;0.52;;;;;;;12.80;74.73;100605.09;7387760;19;20662;-78
2022/03/12 09:41:40;;;;;;;10.40;1.05;;;;;;;12.85;74.10;100615.13;7382727;19;20041;-78
2022/03/12 09:44:08;;;;;;;5.30;0.63;;;;;;;12.90;73.17;100612.78;7383877;19;20355;-78
2022/03/12 09:46:35;;;;;;;10.80;1.05;;;;;;;13.01;72.09;100608.94;7387507;19;20018;-77
2022/03/12 09:49:04;;;;;;;8.25;0.38;;;;;;;13.10;72.83;100613.22;7384559;19;20330;-78
2022/03/12 09:51:32;;;;;;;9.35;0.90;;;;;;;13.24;73.76;100621.22;7382880;19;20015;-77
2022/03/12 09:53:59;;;;;;;8.48;0.68;;;;;;;13.33;72.04;100613.25;7386084;19;20033;-78
2022/03/12 09:56:26;;;;;;;7.45;0.55;;;;;;;13.42;73.10;100609.53;7385054;19;20042;-79
2022/03/12 09:58:53;;;;;;;9.02;0.40;;;;;;;13.51;72.52;100611.16;7385477;19;20009;-80
2022/03/12 10:01:21;;;;;;;7.38;0.50;;;;;;;13.46;70.06;100613.50;7381626;19;20013;-78
2022/03/12 10:03:49;;;;;;;11.13;0.60;;;;;;;13.48;69.29;100622.06;7388159;19;20014;-79
2022/03/12 10:06:17;;;;;;;5.10;0.80;;;;;;;13.46;68.55;100622.22;7388575;19;20010;-78
2022/03/12 10:08:46;;;;;;;6.78;0.30;;;;;;;13.43;68.80;100624.41;7387690;19;20218;-77
2022/03/12 10:11:14;;;;;;;10.60;0.40;;;;;;;13.38;68.73;100629.38;7386502;19;20015;-79
2022/03/12 10:13:41;;;;;;;6.45;0.30;;;;;;;13.44;68.74;100636.63;7388078;19;20407;-78
2022/03/12 10:16:09;;;;;;;9.93;0.50;;;;;;;13.47;68.79;100634.44;7384752;19;20300;-79
2022/03/12 10:18:37;;;;;;;5.85;0.40;;;;;;;13.48;68.14;100628.16;7387318;19;20011;-78
2022/03/12 10:21:04;;;;;;;5.78;0.70;;;;;;;13.56;69.36;100624.66;7384266;19;20026;-78
2022/03/12 10:23:33;;;;;;;7.05;0.40;;;;;;;13.60;68.69;100636.50;7386141;19;20316;-78
2022/03/12 10:26:00;;;;;;;4.15;0.47;;;;;;;13.61;68.13;100630.22;7385484;19;20082;-80
2022/03/12 10:28:29;;;;;;;9.32;0.77;;;;;;;13.66;69.23;100635.81;7385103;19;20014;-80
2022/03/12 10:30:57;;;;;;;10.27;0.70;;;;;;;13.69;67.78;100630.97;7367593;19;20018;-77
2022/03/12 10:33:25;;;;;;;7.43;0.40;;;;;;;13.74;68.04;100632.25;7380528;19;20335;-79
2022/03/12 10:35:53;;;;;;;9.30;0.50;;;;;;;13.71;67.88;100641.38;7384170;19;20010;-79
2022/03/12 10:38:22;;;;;;;5.28;0.40;;;;;;;13.79;67.77;100635.19;7386422;19;20019;-78
2022/03/12 10:40:49;;;;;;;6.72;0.38;;;;;;;13.82;66.87;100637.47;7386515;19;20089;-78
2022/03/12 10:43:17;;;;;;;5.50;0.40;;;;;;;13.84;66.20;100638.13;7384993;19;20100;-78
2022/03/12 10:45:46;;;;;;;14.02;1.25;;;;;;;13.88;66.92;100637.59;7386501;19;20024;-77
2022/03/12 10:48:19;;;;;;;5.50;0.32;;;;;;;13.92;66.28;100644.16;7386223;19;20033;-78
2022/03/12 10:50:49;;;;;;;3.30;0.47;;;;;;;14.03;67.17;100641.09;7383030;19;20053;-78
2022/03/12 10:53:17;;;;;;;5.50;0.40;;;;;;;14.08;65.51;100641.38;7384604;19;20010;-79
2022/03/12 10:55:50;;;;;;;5.75;1.13;;;;;;;14.09;65.12;100626.31;7386818;19;20536;-82
2022/03/12 10:58:22;;;;;;;5.47;0.30;;;;;;;14.08;64.17;100635.25;7383096;19;20105;-78
2022/03/12 11:00:52;;;;;;;3.92;0.30;;;;;;;14.05;66.17;100641.75;7380460;19;20085;-77
2022/03/12 11:03:22;;;;;;;4.78;0.38;;;;;;;14.02;65.24;100630.66;7387073;19;20010;-79
2022/03/12 11:05:52;;;;;;;8.05;0.45;;;;;;;14.04;64.54;100626.03;7384124;19;20010;-79
2022/03/12 11:08:21;;;;;;;3.40;0.30;;;;;;;14.03;64.13;100617.28;7383580;19;20017;-79
2022/03/12 11:10:58;;;;;;;5.03;0.40;;;;;;;13.97;63.60;100614.50;7384835;19;20020;-79
2022/03/12 11:13:47;;;;;;;5.05;0.30;;;;;;;14.01;65.19;100618.47;7381714;19;20506;-78
2022/03/12 11:16:20;;;;;;;5.43;0.32;;;;;;;14.03;64.87;100605.88;7381728;19;20003;-79
2022/03/12 11:18:50;;;;;;;6.07;0.47;;;;;;;13.98;64.55;100610.88;7379836;19;20043;-78
2022/03/12 11:21:51;;;;;;;2.42;0.20;;;;;;;13.95;63.98;100611.25;7383577;19;20018;-77
2022/03/12 11:24:25;;;;;;;5.35;0.50;;;;;;;13.97;63.09;100625.91;7386111;19;20464;-83
2022/03/12 11:27:01;;;;;;;4.30;0.10;;;;;;;14.01;63.82;100626.41;7391624;19;20013;-84
2022/03/12 11:29:34;;;;;;;6.43;0.40;;;;;;;14.01;62.32;100626.41;7387246;19;20014;-82
2022/03/12 11:32:09;;;;;;;4.10;0.50;;;;;;;14.07;63.13;100623.84;7388323;19;20015;-85
2022/03/12 11:34:47;;;;;;;8.35;0.52;;;;;;;14.12;64.15;100625.94;7380611;19;20011;-79
2022/03/12 11:37:21;;;;;;;8.20;0.40;;;;;;;14.11;62.81;100637.56;7390156;19;20054;-81